Time;durP1;ratioP1;P1;durP2;ratioP2;P2;SDS_P1;SDS_P2;PMS_P1;PMS_P2;Temp;Humidity;BMP_temperature;BMP_pressure;BME280_temperature;BME280_humidity;BME280_pressure;Samples;Min_cycle;Max_cycle;Signal;HPM_P1;HPM_P2
2021/08/18 00:00:46;;;;;;;2.75;1.50;;;19.90;70.70;;;;;;5079716;28;20044;-72
2021/08/18 00:03:12;;;;;;;1.77;1.17;;;20.00;70.70;;;;;;5084669;28;20044;-72
2021/08/18 00:05:40;;;;;;;3.88;1.45;;;19.90;70.70;;;;;;5081222;28;20066;-72
2021/08/18 00:08:10;;;;;;;3.97;1.60;;;20.00;70.70;;;;;;5094007;28;20063;-72
2021/08/18 00:10:37;;;;;;;2.97;1.67;;;19.90;70.70;;;;;;5092008;28;20058;-72
2021/08/18 00:13:04;;;;;;;1.85;1.33;;;19.90;70.70;;;;;;5096843;28;20319;-72
2021/08/18 00:15:31;;;;;;;3.63;1.80;;;19.90;70.70;;;;;;5097009;28;20054;-72
2021/08/18 00:18:00;;;;;;;2.42;1.30;;;19.90;70.70;;;;;;5089040;28;20040;-72
2021/08/18 00:20:31;;;;;;;2.35;1.73;;;19.90;70.70;;;;;;5086078;28;20048;-72
2021/08/18 00:22:57;;;;;;;2.88;1.50;;;19.90;70.70;;;;;;5096927;28;20119;-71
2021/08/18 00:25:24;;;;;;;2.60;1.40;;;19.90;70.70;;;;;;5095095;28;20126;-71
2021/08/18 00:27:50;;;;;;;2.42;1.65;;;19.90;70.70;;;;;;5082360;28;20044;-71
2021/08/18 00:30:16;;;;;;;2.00;1.50;;;19.90;70.80;;;;;;5076610;28;20394;-72
2021/08/18 00:32:42;;;;;;;1.90;1.30;;;19.90;70.70;;;;;;5084885;28;20044;-71
2021/08/18 00:35:08;;;;;;;3.45;1.60;;;19.90;70.70;;;;;;5097602;28;20062;-72
2021/08/18 00:37:34;;;;;;;5.10;1.73;;;19.90;70.70;;;;;;5094835;28;20063;-72
2021/08/18 00:40:00;;;;;;;4.07;2.17;;;19.90;70.70;;;;;;5081350;28;20047;-72
2021/08/18 00:42:26;;;;;;;3.13;1.30;;;19.90;70.70;;;;;;5076942;28;20116;-72
2021/08/18 00:44:53;;;;;;;2.75;1.60;;;19.90;70.70;;;;;;5080358;28;20035;-72
2021/08/18 00:47:19;;;;;;;2.70;1.65;;;19.90;70.70;;;;;;5089450;28;20044;-72
2021/08/18 00:49:45;;;;;;;4.18;1.95;;;19.90;70.70;;;;;;5093320;28;20450;-72
2021/08/18 00:52:11;;;;;;;2.13;1.45;;;19.90;70.70;;;;;;5096791;28;20040;-71
2021/08/18 00:54:37;;;;;;;3.03;1.60;;;19.90;70.70;;;;;;5079536;28;20041;-72
2021/08/18 00:57:03;;;;;;;1.65;1.48;;;19.90;70.70;;;;;;5076154;28;20040;-72
2021/08/18 00:59:30;;;;;;;3.55;1.70;;;19.90;70.70;;;;;;5075912;28;20506;-72
2021/08/18 01:01:58;;;;;;;3.47;1.63;;;19.90;70.70;;;;;;5090324;28;20048;-71
2021/08/18 01:04:23;;;;;;;3.92;1.85;;;19.90;70.70;;;;;;5075840;28;20063;-72
2021/08/18 01:06:50;;;;;;;3.05;2.05;;;19.90;70.80;;;;;;5075672;28;20052;-73
2021/08/18 01:09:17;;;;;;;2.75;1.67;;;19.90;70.80;;;;;;5082675;28;20086;-72
2021/08/18 01:11:46;;;;;;;2.63;1.50;;;19.90;70.80;;;;;;5084001;28;20048;-72
2021/08/18 01:14:13;;;;;;;2.47;1.70;;;19.90;70.80;;;;;;5076543;28;20040;-72
2021/08/18 01:16:42;;;;;;;3.78;1.92;;;19.90;70.80;;;;;;5076711;28;20056;-72
2021/08/18 01:19:09;;;;;;;2.47;1.52;;;19.90;70.80;;;;;;5093013;28;20048;-72
2021/08/18 01:21:38;;;;;;;1.98;1.58;;;19.90;70.70;;;;;;5085345;28;20044;-72
2021/08/18 01:24:05;;;;;;;4.78;1.73;;;19.90;70.70;;;;;;5075614;28;20107;-72
2021/08/18 01:26:31;;;;;;;2.53;1.38;;;19.90;70.70;;;;;;5075839;28;20037;-72
2021/08/18 01:29:01;;;;;;;3.22;1.92;;;19.90;70.70;;;;;;5075735;28;20393;-72
2021/08/18 01:31:27;;;;;;;2.95;1.77;;;19.90;70.70;;;;;;5076518;28;20448;-71
2021/08/18 01:33:57;;;;;;;2.95;1.77;;;19.90;70.70;;;;;;5086741;28;20040;-72
2021/08/18 01:36:26;;;;;;;3.28;2.08;;;19.90;70.70;;;;;;5075795;28;20044;-72
2021/08/18 01:38:52;;;;;;;3.55;1.52;;;19.90;70.70;;;;;;5079047;28;20045;-72
2021/08/18 01:41:18;;;;;;;2.92;1.75;;;19.90;70.70;;;;;;5075286;28;20196;-72
2021/08/18 01:43:43;;;;;;;2.88;2.05;;;19.90;70.80;;;;;;5075773;28;20037;-72
2021/08/18 01:46:10;;;;;;;3.03;1.83;;;19.90;70.80;;;;;;5086108;28;20093;-71
2021/08/18 01:48:36;;;;;;;3.08;1.70;;;19.80;70.70;;;;;;5093350;28;20056;-72
2021/08/18 01:51:03;;;;;;;7.35;2.30;;;19.90;70.70;;;;;;5079618;28;20055;-72
2021/08/18 01:53:32;;;;;;;2.00;1.58;;;19.90;71.00;;;;;;5089987;28;20055;-72
2021/08/18 01:56:01;;;;;;;2.92;1.98;;;19.90;70.70;;;;;;5081722;28;20060;-72
2021/08/18 01:58:27;;;;;;;2.45;1.90;;;19.90;70.70;;;;;;5075336;28;20057;-72
2021/08/18 02:00:53;;;;;;;2.80;1.85;;;19.80;71.30;;;;;;5086063;28;20040;-72
2021/08/18 02:03:19;;;;;;;2.97;2.10;;;19.90;70.80;;;;;;5091059;28;20117;-72
2021/08/18 02:05:45;;;;;;;3.42;1.90;;;19.80;70.70;;;;;;5089946;28;20432;-72
2021/08/18 02:08:11;;;;;;;4.50;1.75;;;19.90;70.70;;;;;;5093159;28;20043;-72
2021/08/18 02:10:37;;;;;;;3.22;2.17;;;19.90;70.80;;;;;;5075070;28;20064;-72
2021/08/18 02:13:04;;;;;;;3.13;2.05;;;19.80;70.80;;;;;;5075204;28;20032;-72
2021/08/18 02:15:33;;;;;;;4.22;2.10;;;19.90;70.80;;;;;;5086841;28;20123;-72
2021/08/18 02:18:00;;;;;;;2.50;1.83;;;19.80;70.80;;;;;;5093863;28;20036;-74
2021/08/18 02:20:30;;;;;;;3.47;1.92;;;19.90;70.90;;;;;;5079532;28;20040;-72
2021/08/18 02:22:56;;;;;;;4.22;2.10;;;19.90;70.80;;;;;;5098921;28;20044;-72
2021/08/18 02:25:23;;;;;;;3.08;1.70;;;19.80;70.80;;;;;;5099494;28;20048;-72
2021/08/18 02:27:50;;;;;;;2.88;1.50;;;19.80;70.80;;;;;;5089003;28;20051;-72
2021/08/18 02:30:18;;;;;;;2.65;2.00;;;19.90;70.80;;;;;;5079206;28;20079;-72
2021/08/18 02:32:45;;;;;;;3.65;2.10;;;19.80;70.70;;;;;;5090475;28;20346;-72
2021/08/18 02:35:12;;;;;;;2.78;1.83;;;19.90;70.80;;;;;;5080642;28;20044;-72
2021/08/18 02:37:39;;;;;;;3.33;2.05;;;19.80;70.70;;;;;;5078995;28;20040;-72
2021/08/18 02:40:06;;;;;;;4.45;1.98;;;19.90;70.70;;;;;;5088115;28;20051;-72
2021/08/18 02:42:33;;;;;;;2.80;1.85;;;19.80;70.70;;;;;;5085206;28;20047;-72
2021/08/18 02:44:59;;;;;;;5.85;2.00;;;19.80;70.70;;;;;;5099633;28;20059;-72
2021/08/18 02:47:25;;;;;;;3.70;2.55;;;19.80;70.70;;;;;;5098228;28;20104;-72
2021/08/18 02:49:52;;;;;;;3.58;2.22;;;19.90;70.70;;;;;;5099059;28;20131;-71
2021/08/18 02:52:18;;;;;;;3.72;2.20;;;19.80;70.70;;;;;;5097274;28;20032;-72
2021/08/18 02:54:44;;;;;;;3.20;1.85;;;19.90;70.80;;;;;;5098318;28;20054;-72
2021/08/18 02:57:10;;;;;;;3.47;2.20;;;19.80;70.70;;;;;;5091402;28;20431;-72
2021/08/18 02:59:36;;;;;;;3.53;2.03;;;19.80;71.30;;;;;;5099002;28;20093;-72
2021/08/18 03:02:02;;;;;;;3.50;1.98;;;19.80;70.80;;;;;;5084194;28;20047;-73
2021/08/18 03:04:28;;;;;;;7.30;2.30;;;19.80;70.70;;;;;;5097738;28;20048;-72
2021/08/18 03:06:54;;;;;;;3.40;2.28;;;19.80;70.80;;;;;;5092545;28;20055;-72
2021/08/18 03:09:22;;;;;;;3.72;2.03;;;19.90;70.80;;;;;;5089735;28;20093;-72
2021/08/18 03:11:48;;;;;;;3.05;2.17;;;19.80;70.80;;;;;;5098369;28;20105;-71
2021/08/18 03:14:14;;;;;;;3.90;2.05;;;19.90;70.80;;;;;;5095713;28;20060;-72
2021/08/18 03:16:40;;;;;;;3.67;2.65;;;19.80;70.80;;;;;;5077979;28;20077;-72
2021/08/18 03:19:07;;;;;;;3.63;2.38;;;19.80;70.80;;;;;;5089484;28;20044;-72
2021/08/18 03:21:33;;;;;;;3.28;2.30;;;19.80;70.80;;;;;;5078229;28;20378;-72
2021/08/18 03:23:59;;;;;;;3.17;1.83;;;19.80;70.80;;;;;;5078573;28;20097;-72
2021/08/18 03:26:25;;;;;;;3.28;2.28;;;19.90;70.90;;;;;;5078039;28;20052;-72
2021/08/18 03:28:51;;;;;;;3.22;2.50;;;19.80;70.80;;;;;;5097559;28;20040;-72
2021/08/18 03:31:17;;;;;;;4.35;2.40;;;19.80;70.80;;;;;;5080444;28;20047;-72
2021/08/18 03:33:43;;;;;;;4.00;2.67;;;19.80;70.80;;;;;;5096020;28;20423;-72
2021/08/18 03:36:09;;;;;;;4.22;2.38;;;19.90;70.80;;;;;;5098239;28;20107;-72
2021/08/18 03:38:35;;;;;;;4.75;2.13;;;19.80;70.80;;;;;;5089438;28;20036;-72
2021/08/18 03:41:02;;;;;;;3.53;1.95;;;19.80;70.80;;;;;;5091396;28;20059;-72
2021/08/18 03:43:27;;;;;;;3.58;2.25;;;19.80;70.70;;;;;;5077279;28;20075;-72
2021/08/18 03:45:53;;;;;;;2.97;1.92;;;19.80;71.30;;;;;;5091214;28;20064;-72
2021/08/18 03:48:19;;;;;;;3.67;2.38;;;19.80;70.80;;;;;;5098095;28;20064;-72
2021/08/18 03:50:45;;;;;;;3.15;2.03;;;19.90;70.80;;;;;;5084716;28;20044;-72
2021/08/18 03:53:11;;;;;;;3.22;2.33;;;19.80;70.80;;;;;;5087144;28;20036;-72
2021/08/18 03:55:37;;;;;;;3.63;2.17;;;19.80;70.80;;;;;;5094324;28;20043;-72
2021/08/18 03:58:03;;;;;;;3.90;2.58;;;19.80;70.80;;;;;;5066542;28;20044;-72
2021/08/18 04:00:29;;;;;;;4.35;2.30;;;19.80;70.80;;;;;;5071742;28;20059;-72
2021/08/18 04:02:55;;;;;;;4.97;2.17;;;19.80;70.80;;;;;;5083271;28;20313;-72
2021/08/18 04:05:21;;;;;;;3.55;2.28;;;19.80;70.80;;;;;;5077119;28;20048;-72
2021/08/18 04:07:47;;;;;;;3.35;2.55;;;19.80;70.80;;;;;;5091365;28;20036;-72
2021/08/18 04:10:13;;;;;;;3.35;2.20;;;19.80;70.90;;;;;;5079964;28;20040;-72
2021/08/18 04:12:49;;;;;;;3.58;2.25;;;19.80;70.90;;;;;;5076863;28;20040;-72
2021/08/18 04:15:16;;;;;;;3.72;2.22;;;19.80;70.90;;;;;;5080748;28;20515;-72
2021/08/18 04:17:42;;;;;;;4.65;2.20;;;19.80;71.00;;;;;;5096525;28;20409;-72
2021/08/18 04:20:08;;;;;;;3.53;2.35;;;19.80;71.00;;;;;;5089359;28;20036;-72
2021/08/18 04:22:34;;;;;;;3.25;1.90;;;19.80;71.00;;;;;;5077040;28;20534;-72
2021/08/18 04:24:59;;;;;;;2.78;1.90;;;19.80;71.00;;;;;;5076834;28;20119;-72
2021/08/18 04:27:25;;;;;;;4.13;2.03;;;19.80;71.00;;;;;;5076777;28;20485;-72
2021/08/18 04:29:51;;;;;;;4.20;2.47;;;19.80;71.10;;;;;;5092340;28;20127;-72
2021/08/18 04:32:17;;;;;;;3.78;1.73;;;19.80;71.00;;;;;;5089110;28;20441;-72
2021/08/18 04:34:43;;;;;;;2.40;1.85;;;19.80;71.10;;;;;;5077349;28;20359;-72
2021/08/18 04:37:10;;;;;;;3.92;2.08;;;19.80;71.10;;;;;;5076362;28;20055;-72
2021/08/18 04:39:36;;;;;;;3.47;2.10;;;19.80;71.00;;;;;;5077489;28;20040;-72
2021/08/18 04:42:02;;;;;;;3.08;1.33;;;19.80;71.00;;;;;;5078159;28;20122;-71
2021/08/18 04:44:28;;;;;;;3.05;2.20;;;19.80;71.00;;;;;;5096393;28;20432;-72
2021/08/18 04:46:54;;;;;;;3.13;1.80;;;19.80;71.10;;;;;;5096779;28;20435;-72
2021/08/18 04:49:19;;;;;;;3.55;2.42;;;19.80;71.00;;;;;;5093695;28;20040;-72
2021/08/18 04:51:45;;;;;;;2.72;1.67;;;19.80;71.00;;;;;;5076266;28;20041;-72
2021/08/18 04:54:11;;;;;;;3.28;1.95;;;19.80;71.00;;;;;;5076332;28;20404;-72
2021/08/18 04:56:37;;;;;;;2.65;1.88;;;19.80;71.00;;;;;;5058406;28;20044;-72
2021/08/18 04:59:03;;;;;;;2.75;1.90;;;19.80;71.00;;;;;;5082939;28;20024;-72
2021/08/18 05:01:28;;;;;;;2.33;1.70;;;19.80;70.90;;;;;;5086988;28;20474;-72
2021/08/18 05:03:54;;;;;;;2.55;1.75;;;19.80;70.90;;;;;;5096920;28;20043;-72
2021/08/18 05:06:20;;;;;;;3.28;1.75;;;19.80;70.90;;;;;;5096731;28;20051;-72
2021/08/18 05:08:46;;;;;;;3.25;1.40;;;19.80;71.00;;;;;;5094605;28;20043;-72
2021/08/18 05:11:12;;;;;;;2.28;1.48;;;19.80;70.90;;;;;;5076565;28;20131;-72
2021/08/18 05:13:38;;;;;;;3.25;1.60;;;19.80;71.10;;;;;;5076913;28;20067;-76
2021/08/18 05:16:04;;;;;;;2.30;1.40;;;19.80;71.10;;;;;;5085207;28;20055;-72
2021/08/18 05:18:33;;;;;;;4.22;1.52;;;19.80;71.20;;;;;;5095758;28;20031;-69
2021/08/18 05:21:01;;;;;;;2.72;1.63;;;19.80;71.40;;;;;;5095898;28;20339;-74
2021/08/18 05:23:27;;;;;;;4.22;1.23;;;19.80;71.30;;;;;;5095614;28;20068;-70
2021/08/18 05:25:53;;;;;;;2.47;1.38;;;19.80;71.40;;;;;;5095907;28;20091;-71
2021/08/18 05:28:20;;;;;;;3.40;1.38;;;19.80;71.20;;;;;;5095827;28;20040;-73
2021/08/18 05:30:56;;;;;;;3.25;1.60;;;19.80;71.30;;;;;;5096117;28;20046;-71
2021/08/18 05:33:24;;;;;;;3.55;1.55;;;19.80;71.40;;;;;;5078931;28;20117;-70
2021/08/18 05:35:50;;;;;;;3.08;1.40;;;19.80;71.50;;;;;;5075880;28;20444;-71
2021/08/18 05:38:16;;;;;;;4.55;1.38;;;19.80;71.50;;;;;;5075766;28;20044;-70
2021/08/18 05:40:42;;;;;;;4.55;1.50;;;19.80;71.50;;;;;;5075275;28;20052;-69
2021/08/18 05:43:14;;;;;;;3.70;1.63;;;19.80;71.50;;;;;;5075425;28;20036;-70
2021/08/18 05:45:40;;;;;;;1.70;1.13;;;19.80;71.70;;;;;;5075381;28;20068;-70
2021/08/18 05:48:05;;;;;;;4.72;1.33;;;19.80;71.60;;;;;;5075131;28;20076;-71
2021/08/18 05:50:31;;;;;;;4.18;1.17;;;19.80;71.60;;;;;;5075568;28;20083;-70
2021/08/18 05:53:01;;;;;;;3.92;1.20;;;19.80;71.60;;;;;;5083767;28;20071;-71
2021/08/18 05:55:28;;;;;;;3.35;1.13;;;19.80;71.50;;;;;;5110103;28;20070;-71
2021/08/18 05:57:54;;;;;;;5.22;1.20;;;19.80;71.50;;;;;;5099523;28;20067;-69
2021/08/18 06:00:19;;;;;;;4.30;1.10;;;19.80;71.70;;;;;;5095230;28;20101;-69
2021/08/18 06:02:45;;;;;;;4.00;1.00;;;19.80;71.60;;;;;;5094305;28;20036;-69
2021/08/18 06:05:11;;;;;;;2.28;1.08;;;19.70;71.50;;;;;;5095355;28;20043;-70
2021/08/18 06:07:37;;;;;;;3.15;1.23;;;19.70;71.50;;;;;;5095901;28;20109;-69
2021/08/18 06:10:04;;;;;;;2.83;1.20;;;19.60;71.60;;;;;;5095267;28;20044;-69
2021/08/18 06:12:30;;;;;;;1.92;1.00;;;19.60;71.70;;;;;;5096129;28;20493;-69
2021/08/18 06:14:55;;;;;;;3.00;1.10;;;19.60;71.80;;;;;;5095258;28;20036;-70
2021/08/18 06:17:22;;;;;;;3.13;1.23;;;19.60;71.80;;;;;;5094870;28;20430;-71
2021/08/18 06:19:48;;;;;;;3.17;1.00;;;19.60;72.10;;;;;;5095017;28;20071;-72
2021/08/18 06:22:13;;;;;;;4.30;1.02;;;19.60;72.20;;;;;;5094776;28;20328;-72
2021/08/18 06:27:05;;;;;;;5.68;1.15;;;19.60;72.30;;;;;;5095102;28;20415;-73
2021/08/18 06:29:32;;;;;;;3.22;1.25;;;19.60;72.20;;;;;;5095315;28;20044;-75
2021/08/18 06:31:58;;;;;;;3.85;1.17;;;19.60;72.20;;;;;;5089865;28;20452;-72
2021/08/18 06:34:24;;;;;;;7.18;1.65;;;19.60;72.20;;;;;;5075067;28;20094;-73
2021/08/18 06:36:50;;;;;;;3.58;1.05;;;19.60;72.20;;;;;;5075015;28;20044;-72
2021/08/18 06:39:17;;;;;;;3.35;1.50;;;19.70;72.30;;;;;;5074803;28;20435;-73
2021/08/18 06:41:42;;;;;;;4.82;1.23;;;19.70;72.40;;;;;;5075042;28;20115;-71
2021/08/18 06:44:11;;;;;;;8.07;1.35;;;19.70;72.50;;;;;;5075048;28;20132;-72
2021/08/18 06:46:36;;;;;;;4.82;1.20;;;19.70;72.50;;;;;;5074349;28;20044;-70
2021/08/18 06:49:02;;;;;;;5.43;1.30;;;19.70;72.50;;;;;;5093769;28;20040;-73
2021/08/18 06:51:29;;;;;;;2.33;1.42;;;19.70;72.50;;;;;;5077224;28;20040;-73
2021/08/18 06:53:54;;;;;;;6.13;1.40;;;19.70;72.40;;;;;;5095042;28;20093;-73
2021/08/18 06:56:20;;;;;;;4.63;1.20;;;19.70;72.60;;;;;;5095664;28;20036;-70
2021/08/18 06:58:46;;;;;;;4.20;1.13;;;19.70;72.60;;;;;;5094722;28;20064;-69
2021/08/18 07:01:12;;;;;;;5.13;1.13;;;19.70;72.70;;;;;;5094979;28;20461;-71
2021/08/18 07:03:37;;;;;;;4.28;1.33;;;19.70;72.80;;;;;;5076534;28;20109;-69
2021/08/18 07:06:03;;;;;;;6.40;1.55;;;19.70;72.80;;;;;;5074987;28;20036;-69
2021/08/18 07:08:29;;;;;;;3.63;1.40;;;19.70;72.80;;;;;;5078115;28;20044;-69
2021/08/18 07:10:55;;;;;;;4.22;1.30;;;19.80;73.00;;;;;;5078068;28;20041;-69
2021/08/18 07:13:21;;;;;;;3.58;1.50;;;19.80;73.00;;;;;;5078339;28;20037;-68
2021/08/18 07:15:46;;;;;;;5.30;1.48;;;19.70;73.00;;;;;;5077897;28;20477;-68
2021/08/18 07:18:13;;;;;;;6.38;1.80;;;19.70;73.10;;;;;;5078014;28;20064;-69
2021/08/18 07:20:39;;;;;;;8.20;2.10;;;19.80;73.30;;;;;;5078604;28;20076;-70
2021/08/18 07:23:05;;;;;;;4.78;1.73;;;19.80;73.30;;;;;;5077799;28;20036;-69
2021/08/18 07:25:31;;;;;;;4.35;1.92;;;19.80;73.30;;;;;;5077978;28;20060;-69
2021/08/18 07:27:57;;;;;;;4.65;1.80;;;19.80;73.30;;;;;;5078072;28;20079;-68
2021/08/18 07:30:24;;;;;;;5.20;1.92;;;19.80;73.30;;;;;;5078133;28;20515;-69
2021/08/18 07:32:50;;;;;;;5.18;2.15;;;19.80;73.50;;;;;;5088520;28;20046;-70
2021/08/18 07:35:16;;;;;;;7.07;2.20;;;19.80;73.50;;;;;;5098095;28;20339;-68
2021/08/18 07:37:42;;;;;;;7.30;2.00;;;19.80;73.60;;;;;;5098206;28;20046;-69
2021/08/18 07:40:08;;;;;;;7.68;2.25;;;19.80;73.80;;;;;;5098193;28;20036;-75
2021/08/18 07:42:34;;;;;;;10.38;2.92;;;19.80;73.70;;;;;;5098070;28;20443;-73
2021/08/18 07:45:00;;;;;;;5.10;2.22;;;19.80;73.70;;;;;;5097539;28;20032;-71
2021/08/18 07:47:26;;;;;;;5.30;2.17;;;19.80;73.80;;;;;;5097559;28;20458;-70
2021/08/18 07:49:52;;;;;;;5.90;1.95;;;19.80;74.10;;;;;;5098119;28;20044;-70
2021/08/18 07:52:17;;;;;;;4.07;2.00;;;19.80;74.20;;;;;;5098057;28;20035;-72
2021/08/18 07:54:43;;;;;;;5.85;2.55;;;19.80;74.40;;;;;;5097740;28;20110;-70
2021/08/18 07:57:09;;;;;;;6.03;2.20;;;19.90;74.90;;;;;;5097625;28;20044;-76
2021/08/18 07:59:35;;;;;;;8.30;2.65;;;19.90;75.20;;;;;;5097237;28;20056;-70
2021/08/18 08:02:01;;;;;;;7.72;2.25;;;19.90;75.20;;;;;;5091134;28;20040;-69
2021/08/18 08:04:27;;;;;;;11.23;2.50;;;19.90;75.10;;;;;;5077086;28;20040;-71
2021/08/18 08:06:53;;;;;;;8.70;2.47;;;19.90;75.10;;;;;;5077229;28;20070;-69
2021/08/18 08:09:19;;;;;;;6.55;2.10;;;19.90;75.20;;;;;;5077477;28;20082;-70
2021/08/18 08:11:45;;;;;;;8.05;1.95;;;19.90;75.10;;;;;;5077003;28;20098;-70
2021/08/18 08:14:12;;;;;;;9.85;2.28;;;20.00;75.10;;;;;;5077530;28;20040;-70
2021/08/18 08:16:38;;;;;;;9.40;2.20;;;20.00;75.30;;;;;;5077204;28;20059;-70
2021/08/18 08:19:05;;;;;;;7.53;2.30;;;20.00;75.20;;;;;;5076676;28;20075;-70
2021/08/18 08:21:31;;;;;;;13.10;2.78;;;20.00;75.10;;;;;;5077464;28;20319;-70
2021/08/18 08:23:57;;;;;;;13.18;2.80;;;20.00;75.10;;;;;;5076848;28;20040;-73
2021/08/18 08:26:23;;;;;;;8.80;2.40;;;20.00;75.30;;;;;;5076866;28;20044;-76
2021/08/18 08:28:49;;;;;;;9.32;2.83;;;20.00;75.30;;;;;;5077056;28;20051;-74
2021/08/18 08:31:15;;;;;;;5.10;1.77;;;20.10;75.20;;;;;;5076442;28;20044;-73
2021/08/18 08:33:41;;;;;;;8.63;1.80;;;20.00;75.20;;;;;;5096133;28;20043;-73
2021/08/18 08:36:07;;;;;;;6.68;2.35;;;20.10;75.30;;;;;;5097122;28;20425;-73
2021/08/18 08:38:33;;;;;;;7.20;2.35;;;20.00;75.20;;;;;;5096916;28;20074;-70
2021/08/18 08:40:59;;;;;;;10.15;2.42;;;20.00;75.20;;;;;;5097014;28;20032;-69
2021/08/18 08:43:25;;;;;;;3.95;2.05;;;20.00;75.20;;;;;;5096251;28;20400;-69
2021/08/18 08:45:51;;;;;;;4.07;1.85;;;20.00;75.20;;;;;;5096979;28;20044;-69
2021/08/18 08:48:18;;;;;;;5.28;2.50;;;20.00;75.20;;;;;;5092869;28;20036;-70
2021/08/18 08:50:45;;;;;;;4.53;2.00;;;20.00;75.20;;;;;;5076383;28;20449;-70
2021/08/18 08:53:11;;;;;;;5.82;1.52;;;20.00;75.10;;;;;;5076330;28;20043;-70
2021/08/18 08:55:37;;;;;;;4.10;2.15;;;20.00;75.10;;;;;;5076242;28;20406;-70
2021/08/18 08:58:03;;;;;;;4.70;2.13;;;20.10;75.10;;;;;;5076697;28;20125;-69
2021/08/18 09:00:29;;;;;;;3.35;1.90;;;20.00;75.00;;;;;;5084281;28;20454;-70
2021/08/18 09:03:08;;;;;;;3.53;1.50;;;20.00;75.50;;;;;;5096317;28;20119;-70
2021/08/18 09:05:35;;;;;;;6.68;1.83;;;20.00;74.90;;;;;;5096549;28;20044;-70
2021/08/18 09:08:01;;;;;;;3.58;2.00;;;20.10;74.90;;;;;;5096452;28;20423;-69
2021/08/18 09:10:27;;;;;;;5.22;1.73;;;20.00;74.70;;;;;;5096085;28;20156;-70
2021/08/18 09:13:17;;;;;;;3.40;1.30;;;20.00;74.70;;;;;;5096588;28;20044;-69
2021/08/18 09:16:01;;;;;;;4.25;1.70;;;20.10;74.70;;;;;;5096316;28;20049;-69
2021/08/18 09:18:37;;;;;;;;;;;20.10;74.70;;;;;;5092806;28;20024;-70
2021/08/18 09:21:26;;;;;;;2.78;1.60;;;20.00;74.40;;;;;;5076112;28;20001;-69
2021/08/18 09:24:12;;;;;;;3.60;1.50;;;20.10;74.50;;;;;;5075511;28;20116;-69
2021/08/18 09:26:46;;;;;;;5.60;1.90;;;20.10;74.50;;;;;;5075927;28;20036;-69
2021/08/18 09:29:12;;;;;;;4.72;2.13;;;20.10;74.50;;;;;;5074789;28;20101;-69
2021/08/18 09:31:38;;;;;;;4.15;1.70;;;20.10;74.40;;;;;;5076202;28;20052;-69
2021/08/18 09:34:10;;;;;;;3.13;1.73;;;20.10;74.40;;;;;;5076019;28;20048;-70
2021/08/18 09:36:36;;;;;;;4.40;1.80;;;20.10;74.30;;;;;;5075786;28;20044;-70
2021/08/18 09:39:25;;;;;;;3.60;1.83;;;20.10;74.30;;;;;;5075723;28;20090;-69
2021/08/18 09:41:52;;;;;;;2.75;1.85;;;20.10;74.30;;;;;;5075318;28;20048;-69
2021/08/18 09:44:21;;;;;;;3.28;1.98;;;20.10;74.30;;;;;;5075391;28;20040;-70
2021/08/18 09:47:04;;;;;;;3.25;1.77;;;20.10;74.30;;;;;;5075617;28;20104;-70
2021/08/18 09:49:33;;;;;;;3.70;1.80;;;20.10;74.30;;;;;;5075635;28;20041;-70
2021/08/18 09:51:59;;;;;;;4.22;1.95;;;20.10;74.30;;;;;;5075591;28;20047;-69
2021/08/18 09:54:36;;;;;;;3.38;1.83;;;20.10;74.30;;;;;;5075757;28;20063;-70
2021/08/18 09:57:07;;;;;;;3.35;2.05;;;20.10;74.20;;;;;;5094750;28;20192;-70
2021/08/18 09:59:36;;;;;;;4.40;2.05;;;20.10;74.80;;;;;;5095561;28;20060;-69
2021/08/18 10:02:03;;;;;;;2.95;2.33;;;20.10;74.20;;;;;;5088379;28;20355;-70
2021/08/18 10:04:29;;;;;;;3.40;1.95;;;20.10;74.20;;;;;;5085783;28;20051;-70
2021/08/18 10:06:55;;;;;;;3.97;2.35;;;20.10;74.10;;;;;;5094960;28;20040;-69
2021/08/18 10:09:21;;;;;;;4.50;1.98;;;20.10;74.10;;;;;;5095274;28;20043;-70
2021/08/18 10:11:47;;;;;;;3.85;2.00;;;20.20;74.20;;;;;;5094990;28;20043;-70
2021/08/18 10:14:13;;;;;;;5.47;2.63;;;20.20;74.20;;;;;;5095379;28;20504;-70
2021/08/18 10:16:39;;;;;;;4.82;2.25;;;20.20;74.20;;;;;;5095472;28;20043;-69
2021/08/18 10:19:06;;;;;;;3.35;2.40;;;20.20;74.10;;;;;;5095425;28;20051;-69
2021/08/18 10:21:34;;;;;;;3.40;2.33;;;20.20;74.00;;;;;;5095161;28;20120;-69
2021/08/18 10:24:08;;;;;;;4.40;2.30;;;20.20;74.00;;;;;;5095616;28;20089;-70
2021/08/18 10:26:33;;;;;;;4.07;2.17;;;20.20;74.00;;;;;;5095909;28;20037;-69
2021/08/18 10:29:16;;;;;;;3.97;2.53;;;20.20;74.00;;;;;;5095360;28;20423;-70
2021/08/18 10:31:42;;;;;;;2.88;2.42;;;20.20;74.00;;;;;;5092001;28;20359;-70
2021/08/18 10:34:10;;;;;;;3.00;2.25;;;20.20;74.00;;;;;;5081891;28;20036;-70
2021/08/18 10:36:41;;;;;;;4.25;2.50;;;20.20;74.00;;;;;;5095110;28;20044;-70
2021/08/18 10:39:19;;;;;;;3.80;2.60;;;20.20;74.00;;;;;;5095371;28;20040;-70
2021/08/18 10:42:17;;;;;;;5.88;2.72;;;20.20;73.90;;;;;;5098178;28;20044;-70
2021/08/18 10:44:50;;;;;;;4.00;2.70;;;20.20;73.90;;;;;;5099528;28;20040;-70
2021/08/18 10:47:22;;;;;;;3.10;2.35;;;20.20;73.90;;;;;;5099105;28;20044;-69
2021/08/18 10:49:57;;;;;;;2.50;2.30;;;20.20;73.90;;;;;;5098904;28;20108;-69
2021/08/18 10:52:29;;;;;;;2.63;2.30;;;20.20;73.90;;;;;;5099120;28;20063;-69
2021/08/18 10:55:22;;;;;;;4.25;2.60;;;20.20;73.90;;;;;;5098750;28;20055;-70
2021/08/18 10:57:52;;;;;;;3.40;2.60;;;20.20;73.80;;;;;;5098664;28;20043;-70
2021/08/18 11:00:22;;;;;;;7.30;4.45;;;20.20;73.80;;;;;;5091510;28;20083;-70
2021/08/18 11:02:48;;;;;;;9.32;4.75;;;20.20;73.70;;;;;;5086567;28;20059;-69
2021/08/18 11:05:14;;;;;;;8.15;4.30;;;20.20;73.80;;;;;;5078025;28;20044;-71
2021/08/18 11:08:03;;;;;;;9.43;4.60;;;20.20;73.90;;;;;;5078577;28;20047;-69
2021/08/18 11:10:30;;;;;;;9.75;3.97;;;20.20;74.00;;;;;;5078249;28;20033;-70
2021/08/18 11:12:57;;;;;;;9.65;4.20;;;20.20;74.30;;;;;;5078251;28;20431;-70
2021/08/18 11:15:29;;;;;;;16.15;4.75;;;20.20;74.30;;;;;;5077852;28;20113;-70
2021/08/18 11:17:56;;;;;;;14.80;5.07;;;20.20;74.50;;;;;;5077752;28;20056;-72
2021/08/18 11:20:25;;;;;;;11.38;3.58;;;20.20;74.70;;;;;;5077935;28;20052;-70
2021/08/18 11:23:02;;;;;;;7.90;3.72;;;20.20;74.60;;;;;;5078186;28;20075;-70
2021/08/18 11:25:28;;;;;;;11.10;4.32;;;20.20;74.50;;;;;;5077471;28;20051;-72
2021/08/18 11:27:56;;;;;;;17.50;4.53;;;20.20;74.70;;;;;;5077802;28;20363;-73
2021/08/18 11:30:27;;;;;;;9.50;4.20;;;20.20;74.80;;;;;;5077502;28;20093;-70
2021/08/18 11:32:54;;;;;;;12.82;4.68;;;20.20;74.70;;;;;;5062668;28;20121;-71
2021/08/18 11:35:37;;;;;;;14.77;4.65;;;20.20;74.70;;;;;;5077684;28;20095;-70
2021/08/18 11:38:08;;;;;;;13.13;5.90;;;20.20;74.80;;;;;;5077825;28;20068;-72
2021/08/18 11:40:35;;;;;;;13.32;5.55;;;20.30;75.00;;;;;;5077712;28;20116;-71
2021/08/18 11:43:01;;;;;;;24.55;10.55;;;20.30;75.00;;;;;;5077812;28;20048;-74
2021/08/18 11:45:27;;;;;;;42.72;17.85;;;20.30;75.00;;;;;;5089827;28;20043;-70
2021/08/18 11:48:08;;;;;;;36.95;16.83;;;20.30;75.30;;;;;;5077750;28;20044;-73
2021/08/18 11:50:34;;;;;;;12.82;9.00;;;20.30;75.60;;;;;;5087801;28;20109;-73
2021/08/18 11:53:06;;;;;;;13.00;8.50;;;20.30;75.90;;;;;;5096882;28;20044;-69
2021/08/18 11:55:35;;;;;;;12.82;8.27;;;20.30;75.20;;;;;;5097457;28;20043;-72
2021/08/18 11:58:05;;;;;;;11.60;7.93;;;20.30;74.90;;;;;;5097982;28;20040;-74
2021/08/18 12:00:31;;;;;;;10.05;7.40;;;20.30;75.10;;;;;;5096886;28;20044;-71
2021/08/18 12:02:59;;;;;;;10.88;7.40;;;20.30;75.00;;;;;;5084805;28;20386;-74
2021/08/18 12:05:29;;;;;;;11.15;6.88;;;20.20;74.70;;;;;;5077098;28;20474;-71
2021/08/18 12:08:09;;;;;;;11.50;8.38;;;20.20;74.70;;;;;;5077085;28;20047;-71
2021/08/18 12:10:40;;;;;;;14.93;6.45;;;20.20;75.20;;;;;;5077762;28;20051;-74
2021/08/18 12:13:15;;;;;;;12.90;8.13;;;20.30;74.80;;;;;;5076938;28;20068;-71
2021/08/18 12:15:46;;;;;;;12.23;7.00;;;20.30;74.50;;;;;;5076853;28;20037;-73
2021/08/18 12:18:35;;;;;;;13.13;6.47;;;20.30;74.50;;;;;;5077362;28;20332;-72
2021/08/18 12:21:36;;;;;;;16.67;6.38;;;20.30;75.00;;;;;;5076875;28;20109;-73
2021/08/18 12:24:11;;;;;;;16.80;6.95;;;20.30;75.30;;;;;;5015033;28;20459;-73
2021/08/18 12:26:45;;;;;;;11.82;5.97;;;20.30;75.50;;;;;;5067869;28;20062;-71
2021/08/18 12:29:16;;;;;;;18.92;6.95;;;20.30;75.50;;;;;;5076498;28;20366;-71
2021/08/18 12:32:01;;;;;;;11.48;6.53;;;20.30;75.30;;;;;;5076829;28;20444;-71
2021/08/18 12:34:35;;;;;;;10.52;5.55;;;20.30;75.30;;;;;;5093133;28;20107;-71
2021/08/18 12:37:13;;;;;;;11.50;5.78;;;20.30;75.20;;;;;;5096494;28;20044;-71
2021/08/18 12:39:45;;;;;;;9.60;6.20;;;20.30;75.30;;;;;;5096801;28;20093;-71
2021/08/18 12:42:42;;;;;;;9.65;5.43;;;20.30;75.40;;;;;;5097113;28;20118;-72
2021/08/18 12:45:19;;;;;;;7.63;5.35;;;20.40;75.60;;;;;;5074087;28;20121;-72
2021/08/18 12:47:55;;;;;;;7.50;4.85;;;20.30;75.50;;;;;;5096847;28;20109;-71
2021/08/18 12:50:35;;;;;;;10.93;5.70;;;20.30;75.50;;;;;;5096436;28;20048;-71
2021/08/18 12:53:03;;;;;;;8.55;5.53;;;20.30;75.50;;;;;;5096596;28;20032;-70